Time;durP1;ratioP1;P1;durP2;ratioP2;P2;SDS_P1;SDS_P2;PMS_P1;PMS_P2;Temp;Humidity;BMP_temperature;BMP_pressure;BME280_temperature;BME280_humidity;BME280_pressure;Samples;Min_cycle;Max_cycle;Signal;HPM_P1;HPM_P2
2022/07/15 00:02:10;;;;;;;0.00;0.00;;;14.80;74.90;;;;;;5029068;28;20041;-71
2022/07/15 00:04:36;;;;;;;0.05;0.05;;;14.90;75.50;;;;;;5023927;28;20041;-71
2022/07/15 00:07:03;;;;;;;0.00;0.00;;;14.90;76.10;;;;;;5029176;28;20103;-71
2022/07/15 00:12:13;;;;;;;0.00;0.00;;;14.90;76.70;;;;;;5028277;28;20037;-71
2022/07/15 00:14:39;;;;;;;0.00;0.00;;;14.90;76.90;;;;;;5028760;28;20071;-71
2022/07/15 00:17:06;;;;;;;0.00;0.00;;;15.00;77.20;;;;;;5029386;28;20349;-71
2022/07/15 00:19:32;;;;;;;0.00;0.00;;;15.00;77.30;;;;;;5028973;28;20038;-71
2022/07/15 00:21:58;;;;;;;0.00;0.00;;;15.00;77.30;;;;;;5027931;28;20048;-71
2022/07/15 00:24:24;;;;;;;0.00;0.00;;;15.10;77.50;;;;;;5028966;28;20121;-71
2022/07/15 00:26:50;;;;;;;0.00;0.00;;;15.10;77.30;;;;;;5028122;28;20159;-70
2022/07/15 00:29:15;;;;;;;0.00;0.00;;;15.10;77.40;;;;;;5010849;28;21192;-71
2022/07/15 00:31:41;;;;;;;0.00;0.00;;;15.10;77.60;;;;;;5011201;28;20041;-70
2022/07/15 00:34:07;;;;;;;0.00;0.00;;;15.10;78.20;;;;;;5028921;28;20046;-71
2022/07/15 00:36:32;;;;;;;0.00;0.00;;;15.10;78.40;;;;;;5040284;28;20045;-69
2022/07/15 00:38:58;;;;;;;0.00;0.00;;;15.10;78.60;;;;;;5041450;28;20038;-70
2022/07/15 00:41:24;;;;;;;0.05;0.05;;;15.10;78.30;;;;;;5028526;28;20658;-69
2022/07/15 00:43:50;;;;;;;0.00;0.00;;;15.10;78.40;;;;;;5028535;28;20048;-69
2022/07/15 00:46:20;;;;;;;0.00;0.00;;;15.10;78.80;;;;;;5028442;28;20045;-69
2022/07/15 00:48:46;;;;;;;0.00;0.00;;;15.10;78.60;;;;;;5028941;28;20046;-69
2022/07/15 00:51:12;;;;;;;0.00;0.00;;;15.10;79.20;;;;;;5028441;28;20058;-70
2022/07/15 00:53:39;;;;;;;0.00;0.00;;;15.10;79.70;;;;;;5027803;28;20051;-70
2022/07/15 00:56:09;;;;;;;0.00;0.00;;;15.10;79.50;;;;;;5028364;28;20041;-69
2022/07/15 00:58:41;;;;;;;0.00;0.00;;;15.10;79.50;;;;;;5028224;28;20041;-70
2022/07/15 01:01:07;;;;;;;0.00;0.00;;;15.10;79.70;;;;;;5028340;28;20115;-70
2022/07/15 01:03:33;;;;;;;0.00;0.00;;;15.00;79.80;;;;;;5028915;28;20045;-69
2022/07/15 01:05:59;;;;;;;0.05;0.05;;;15.00;79.90;;;;;;5028349;28;20406;-69
2022/07/15 01:08:25;;;;;;;0.00;0.00;;;15.00;79.80;;;;;;5028103;28;20041;-70
2022/07/15 01:10:52;;;;;;;0.00;0.00;;;15.00;79.70;;;;;;5027101;28;20056;-70
2022/07/15 01:13:19;;;;;;;0.00;0.00;;;15.00;79.50;;;;;;5028075;28;20132;-69
2022/07/15 01:15:46;;;;;;;0.00;0.00;;;15.00;79.30;;;;;;5032280;28;20054;-70
2022/07/15 01:18:11;;;;;;;0.00;0.00;;;15.00;79.30;;;;;;5029548;28;20042;-69
2022/07/15 01:20:41;;;;;;;0.00;0.00;;;15.00;79.20;;;;;;5029357;28;20041;-70
2022/07/15 01:23:07;;;;;;;0.00;0.00;;;15.00;78.80;;;;;;5032324;28;20049;-70
2022/07/15 01:25:32;;;;;;;0.00;0.00;;;15.00;78.60;;;;;;5028081;28;20418;-70
2022/07/15 01:27:58;;;;;;;0.00;0.00;;;15.00;78.40;;;;;;5025327;28;20046;-70
2022/07/15 01:30:24;;;;;;;0.00;0.00;;;15.00;78.80;;;;;;5031860;28;20061;-70
2022/07/15 01:32:50;;;;;;;0.00;0.00;;;14.90;78.70;;;;;;5014364;28;20052;-70
2022/07/15 01:35:16;;;;;;;0.10;0.10;;;14.80;78.80;;;;;;5030765;28;20453;-71
2022/07/15 01:37:41;;;;;;;0.00;0.00;;;14.80;78.70;;;;;;5031785;28;20041;-69
2022/07/15 01:40:08;;;;;;;0.00;0.00;;;14.80;78.50;;;;;;5031175;28;20042;-70
2022/07/15 01:42:33;;;;;;;0.00;0.00;;;14.80;78.20;;;;;;5031922;28;20076;-70
2022/07/15 01:44:59;;;;;;;0.10;0.10;;;14.80;77.90;;;;;;5030641;28;20049;-70
2022/07/15 01:47:25;;;;;;;0.00;0.00;;;14.80;77.70;;;;;;5014476;28;20038;-70
2022/07/15 01:49:51;;;;;;;0.10;0.10;;;14.80;77.50;;;;;;5031335;28;20491;-70
2022/07/15 01:52:17;;;;;;;0.00;0.00;;;14.80;77.30;;;;;;5032418;28;20469;-70
2022/07/15 01:54:43;;;;;;;0.00;0.00;;;14.70;77.30;;;;;;5030663;28;20049;-70
2022/07/15 01:57:08;;;;;;;0.00;0.00;;;14.70;77.20;;;;;;5031376;28;20057;-70
2022/07/15 01:59:34;;;;;;;0.00;0.00;;;14.70;77.10;;;;;;5030976;28;20041;-70
2022/07/15 02:02:00;;;;;;;0.00;0.00;;;14.70;77.00;;;;;;5013280;28;20050;-70
2022/07/15 02:04:26;;;;;;;0.00;0.00;;;14.60;77.00;;;;;;5030350;28;20046;-70
2022/07/15 02:06:52;;;;;;;0.10;0.10;;;14.60;76.90;;;;;;5013412;28;20521;-70
2022/07/15 02:09:18;;;;;;;0.00;0.00;;;14.60;76.80;;;;;;5029973;28;20069;-70
2022/07/15 02:11:44;;;;;;;0.00;0.00;;;14.60;76.80;;;;;;5030942;28;20045;-70
2022/07/15 02:14:10;;;;;;;0.00;0.00;;;14.60;76.70;;;;;;5031134;28;20180;-70
2022/07/15 02:16:35;;;;;;;0.00;0.00;;;14.60;76.70;;;;;;5029478;28;20553;-70
2022/07/15 02:19:01;;;;;;;0.00;0.00;;;14.60;76.60;;;;;;5013696;28;20380;-70
2022/07/15 02:21:28;;;;;;;0.00;0.00;;;14.60;76.30;;;;;;5030795;28;20064;-70
2022/07/15 02:23:55;;;;;;;0.00;0.00;;;14.60;76.30;;;;;;5030686;28;20050;-70
2022/07/15 02:26:21;;;;;;;0.00;0.00;;;14.60;76.20;;;;;;5030081;28;20058;-70
2022/07/15 02:28:47;;;;;;;0.00;0.00;;;14.60;76.30;;;;;;5031177;28;20041;-70
2022/07/15 02:31:12;;;;;;;0.00;0.00;;;14.60;76.20;;;;;;5029901;28;20033;-69
2022/07/15 02:33:41;;;;;;;0.00;0.00;;;14.60;76.10;;;;;;5030329;28;20502;-70
2022/07/15 02:36:07;;;;;;;0.00;0.00;;;14.50;76.20;;;;;;5018284;28;20057;-69
2022/07/15 02:38:33;;;;;;;0.08;0.08;;;14.50;76.10;;;;;;5029897;28;20059;-69
2022/07/15 02:40:58;;;;;;;0.00;0.00;;;14.50;76.10;;;;;;5030891;28;20046;-69
2022/07/15 02:43:24;;;;;;;0.00;0.00;;;14.50;76.20;;;;;;5029492;28;20569;-70
2022/07/15 02:45:50;;;;;;;0.00;0.00;;;14.40;76.20;;;;;;4996728;28;20073;-70
2022/07/15 02:48:16;;;;;;;0.00;0.00;;;14.40;76.10;;;;;;5029192;28;20062;-70
2022/07/15 02:50:41;;;;;;;0.00;0.00;;;14.40;76.00;;;;;;5011870;28;20080;-70
2022/07/15 02:53:07;;;;;;;0.00;0.00;;;14.40;76.00;;;;;;5030307;28;20132;-70
2022/07/15 02:55:33;;;;;;;0.00;0.00;;;14.30;75.90;;;;;;5030661;28;20041;-70
2022/07/15 02:57:59;;;;;;;0.00;0.00;;;14.30;75.70;;;;;;5030402;28;20073;-70
2022/07/15 03:00:25;;;;;;;0.00;0.00;;;14.20;75.80;;;;;;5011411;28;20055;-70
2022/07/15 03:02:51;;;;;;;0.00;0.00;;;14.20;75.80;;;;;;5028752;28;20041;-69
2022/07/15 03:05:17;;;;;;;0.00;0.00;;;14.10;75.90;;;;;;5012021;28;20095;-70
2022/07/15 03:07:44;;;;;;;0.00;0.00;;;14.10;76.00;;;;;;5027239;28;20041;-69
2022/07/15 03:10:11;;;;;;;0.00;0.00;;;14.10;75.90;;;;;;5029532;28;20574;-70
2022/07/15 03:12:36;;;;;;;0.00;0.00;;;14.10;75.90;;;;;;5029139;28;20071;-70
2022/07/15 03:15:03;;;;;;;0.00;0.00;;;14.10;75.80;;;;;;5030121;28;20042;-70
2022/07/15 03:17:29;;;;;;;0.00;0.00;;;14.10;75.50;;;;;;5016164;28;20049;-70
2022/07/15 03:19:55;;;;;;;0.00;0.00;;;14.10;75.20;;;;;;5029341;28;20041;-69
2022/07/15 03:22:22;;;;;;;0.00;0.00;;;14.10;75.20;;;;;;5012035;28;20072;-70
2022/07/15 03:24:48;;;;;;;0.00;0.00;;;14.10;75.20;;;;;;5030208;28;20052;-70
2022/07/15 03:27:15;;;;;;;0.00;0.00;;;14.10;75.30;;;;;;5029462;28;20045;-70
2022/07/15 03:29:42;;;;;;;0.00;0.00;;;14.00;75.40;;;;;;5028682;28;20510;-70
2022/07/15 03:32:07;;;;;;;0.00;0.00;;;14.00;75.30;;;;;;5029388;28;20449;-69
2022/07/15 03:34:33;;;;;;;0.00;0.00;;;14.00;75.10;;;;;;5029098;28;20038;-70
2022/07/15 03:36:59;;;;;;;0.00;0.00;;;13.90;74.90;;;;;;5028433;28;20038;-70
2022/07/15 03:39:25;;;;;;;0.00;0.00;;;13.90;74.80;;;;;;5027876;28;20041;-69
2022/07/15 03:41:51;;;;;;;0.00;0.00;;;13.90;74.50;;;;;;5029670;28;20045;-69
2022/07/15 03:44:17;;;;;;;0.00;0.00;;;13.80;74.60;;;;;;5029284;28;20045;-70
2022/07/15 03:46:45;;;;;;;0.00;0.00;;;13.80;74.70;;;;;;5028088;28;20049;-70
2022/07/15 03:49:14;;;;;;;0.00;0.00;;;13.80;74.70;;;;;;4994826;28;20144;-70
2022/07/15 03:51:40;;;;;;;0.00;0.00;;;13.70;74.40;;;;;;5012034;28;20049;-70
2022/07/15 03:54:06;;;;;;;0.00;0.00;;;13.60;74.70;;;;;;5029224;28;20045;-69
2022/07/15 03:56:33;;;;;;;0.00;0.00;;;13.60;74.40;;;;;;5028433;28;20050;-70
2022/07/15 03:58:59;;;;;;;0.00;0.00;;;13.60;74.30;;;;;;5028968;28;20044;-70
2022/07/15 04:01:25;;;;;;;0.00;0.00;;;13.50;74.40;;;;;;5028828;28;20405;-70
2022/07/15 04:03:52;;;;;;;0.00;0.00;;;13.50;74.40;;;;;;5028752;28;20414;-70
2022/07/15 04:06:19;;;;;;;0.00;0.00;;;13.50;74.70;;;;;;5028432;28;20111;-69
2022/07/15 04:08:45;;;;;;;0.00;0.00;;;13.50;74.60;;;;;;5024664;28;20048;-70
2022/07/15 04:11:11;;;;;;;0.00;0.00;;;13.50;75.00;;;;;;5010713;28;20041;-70
2022/07/15 04:13:37;;;;;;;0.00;0.00;;;13.50;74.90;;;;;;5028629;28;20073;-70
2022/07/15 04:16:04;;;;;;;0.00;0.00;;;13.50;75.00;;;;;;5029278;28;20045;-70
2022/07/15 04:18:29;;;;;;;0.00;0.00;;;13.60;75.00;;;;;;5028529;28;20041;-70
2022/07/15 04:20:55;;;;;;;0.00;0.00;;;13.60;75.10;;;;;;5026918;28;20055;-71
2022/07/15 04:23:21;;;;;;;0.00;0.00;;;13.70;74.90;;;;;;5028082;28;20053;-70
2022/07/15 04:25:46;;;;;;;0.00;0.00;;;13.70;74.80;;;;;;5029326;28;20052;-72
2022/07/15 04:28:12;;;;;;;0.00;0.00;;;13.70;74.60;;;;;;5029094;28;20045;-71
2022/07/15 04:30:38;;;;;;;0.00;0.00;;;13.70;74.70;;;;;;5028479;28;20076;-71
2022/07/15 04:33:03;;;;;;;0.00;0.00;;;13.70;74.60;;;;;;5025647;28;20065;-71
2022/07/15 04:35:29;;;;;;;0.00;0.00;;;13.60;74.30;;;;;;5027630;28;20518;-71
2022/07/15 04:37:55;;;;;;;0.00;0.00;;;13.70;74.20;;;;;;5029206;28;20048;-69
2022/07/15 04:40:20;;;;;;;0.00;0.00;;;13.60;74.20;;;;;;5026961;28;20050;-73
2022/07/15 04:42:46;;;;;;;0.00;0.00;;;13.60;74.40;;;;;;5028709;28;20592;-71
2022/07/15 04:45:12;;;;;;;0.00;0.00;;;13.60;74.40;;;;;;5027267;28;20402;-68
2022/07/15 04:47:38;;;;;;;0.00;0.00;;;13.70;74.50;;;;;;5029090;28;20120;-68
2022/07/15 04:52:48;;;;;;;0.00;0.00;;;13.70;74.40;;;;;;5032691;28;20053;-68
2022/07/15 04:55:14;;;;;;;0.00;0.00;;;13.80;74.50;;;;;;5014170;28;20041;-68
2022/07/15 04:57:41;;;;;;;0.00;0.00;;;13.80;74.50;;;;;;5029233;28;20060;-68
2022/07/15 05:00:09;;;;;;;0.00;0.00;;;13.90;74.40;;;;;;5031408;28;20037;-68
2022/07/15 05:02:35;;;;;;;0.00;0.00;;;13.90;74.50;;;;;;5027333;28;20054;-68
2022/07/15 05:05:00;;;;;;;0.00;0.00;;;13.90;74.30;;;;;;5029607;28;20113;-73
2022/07/15 05:07:26;;;;;;;0.00;0.00;;;14.00;74.30;;;;;;5032096;28;20691;-70
2022/07/15 05:09:52;;;;;;;0.00;0.00;;;14.00;74.40;;;;;;5013103;28;20049;-70
2022/07/15 05:12:18;;;;;;;0.00;0.00;;;14.10;74.40;;;;;;5030554;28;20049;-71
2022/07/15 05:14:43;;;;;;;0.00;0.00;;;14.10;74.50;;;;;;5026936;28;20100;-71
2022/07/15 05:17:10;;;;;;;0.00;0.00;;;14.20;74.50;;;;;;5005630;28;20503;-73
2022/07/15 05:19:35;;;;;;;0.00;0.00;;;14.30;74.60;;;;;;5033489;28;20479;-72
2022/07/15 05:22:01;;;;;;;0.00;0.00;;;14.30;74.50;;;;;;5032052;28;20128;-72
2022/07/15 05:24:27;;;;;;;0.00;0.00;;;14.40;74.20;;;;;;5035924;28;20030;-70
2022/07/15 05:26:53;;;;;;;0.03;0.03;;;14.40;74.00;;;;;;5032048;28;20438;-70
2022/07/15 05:29:21;;;;;;;0.00;0.00;;;14.50;73.90;;;;;;5031056;28;20037;-69
2022/07/15 05:31:50;;;;;;;0.00;0.00;;;14.50;73.90;;;;;;5013287;28;20045;-69
2022/07/15 05:34:16;;;;;;;0.00;0.00;;;14.60;73.90;;;;;;5031547;28;20057;-70
2022/07/15 05:36:42;;;;;;;0.00;0.00;;;14.60;73.90;;;;;;5031155;28;20052;-69
2022/07/15 05:39:08;;;;;;;0.00;0.00;;;14.60;74.20;;;;;;5029641;28;20080;-69
2022/07/15 05:41:33;;;;;;;0.00;0.00;;;14.70;74.20;;;;;;5030930;28;20049;-69
2022/07/15 05:44:00;;;;;;;0.00;0.00;;;14.80;74.00;;;;;;5031428;28;20038;-69
2022/07/15 05:46:26;;;;;;;0.05;0.05;;;14.80;74.10;;;;;;5012211;28;20132;-69
2022/07/15 05:48:51;;;;;;;0.00;0.00;;;14.90;74.00;;;;;;5030938;28;20867;-68
2022/07/15 05:51:17;;;;;;;0.00;0.00;;;15.00;74.30;;;;;;5028730;28;20052;-69
2022/07/15 05:53:43;;;;;;;0.00;0.00;;;15.10;73.90;;;;;;5030730;28;21532;-68
2022/07/15 05:56:09;;;;;;;0.00;0.00;;;15.10;74.10;;;;;;5016677;28;20050;-68
2022/07/15 05:58:35;;;;;;;0.00;0.00;;;15.20;74.40;;;;;;5029420;28;20040;-68
2022/07/15 06:01:00;;;;;;;0.00;0.00;;;15.40;74.60;;;;;;5027743;28;20495;-67
2022/07/15 06:03:26;;;;;;;0.00;0.00;;;15.50;74.50;;;;;;5011609;28;20053;-68
2022/07/15 06:05:51;;;;;;;0.00;0.00;;;15.50;74.20;;;;;;5026734;28;20049;-67
2022/07/15 06:08:17;;;;;;;0.00;0.00;;;15.80;75.50;;;;;;5029601;28;20038;-68
2022/07/15 06:10:43;;;;;;;0.00;0.00;;;15.90;73.90;;;;;;5029859;28;20120;-68
2022/07/15 06:13:09;;;;;;;0.00;0.00;;;16.00;73.10;;;;;;5010091;28;20099;-69
2022/07/15 06:15:36;;;;;;;0.00;0.00;;;16.00;73.10;;;;;;5010981;28;20056;-68
2022/07/15 06:18:02;;;;;;;0.00;0.00;;;16.10;73.10;;;;;;5017067;28;20152;-68
2022/07/15 06:20:28;;;;;;;0.00;0.00;;;16.10;73.30;;;;;;5031363;28;20128;-68
2022/07/15 06:22:53;;;;;;;0.00;0.00;;;16.20;73.10;;;;;;5029936;28;20048;-67
2022/07/15 06:25:20;;;;;;;0.00;0.00;;;16.20;72.50;;;;;;5012553;28;20041;-68
2022/07/15 06:27:46;;;;;;;0.00;0.00;;;16.20;70.80;;;;;;5030622;28;20045;-67
2022/07/15 06:30:13;;;;;;;0.00;0.00;;;16.20;71.40;;;;;;5030725;28;20073;-68
2022/07/15 06:32:39;;;;;;;0.00;0.00;;;16.30;71.70;;;;;;5029751;28;20041;-67
2022/07/15 06:35:05;;;;;;;0.00;0.00;;;16.40;71.80;;;;;;5031015;28;20064;-67
2022/07/15 06:37:31;;;;;;;0.00;0.00;;;16.30;71.70;;;;;;5030982;28;20120;-68
2022/07/15 06:39:57;;;;;;;0.00;0.00;;;16.30;71.40;;;;;;5015342;28;20195;-67
2022/07/15 06:42:22;;;;;;;0.00;0.00;;;16.30;71.80;;;;;;5023086;28;20050;-68
2022/07/15 06:44:49;;;;;;;0.00;0.00;;;16.30;71.80;;;;;;4996838;28;20422;-67
2022/07/15 06:47:14;;;;;;;0.00;0.00;;;16.30;72.40;;;;;;5011503;28;20053;-68
2022/07/15 06:49:40;;;;;;;0.00;0.00;;;16.30;72.40;;;;;;5025111;28;20045;-66
2022/07/15 06:52:06;;;;;;;0.00;0.00;;;16.30;72.10;;;;;;5030060;28;20060;-65
2022/07/15 06:54:32;;;;;;;0.00;0.00;;;16.40;72.60;;;;;;5029730;28;20041;-66
2022/07/15 06:56:59;;;;;;;0.00;0.00;;;16.50;71.90;;;;;;5029292;28;20049;-66
2022/07/15 06:59:25;;;;;;;0.00;0.00;;;16.50;71.30;;;;;;5029166;28;20049;-66
2022/07/15 07:01:52;;;;;;;0.00;0.00;;;16.50;71.20;;;;;;5029917;28;20537;-66
2022/07/15 07:04:18;;;;;;;0.00;0.00;;;16.60;71.30;;;;;;5012011;28;20084;-66
2022/07/15 07:06:43;;;;;;;0.00;0.00;;;16.70;70.50;;;;;;5036919;28;20049;-68
2022/07/15 07:09:09;;;;;;;0.00;0.00;;;16.80;69.10;;;;;;5028812;28;20033;-67
2022/07/15 07:11:35;;;;;;;0.00;0.00;;;16.80;68.30;;;;;;5029658;28;20053;-67
2022/07/15 07:14:01;;;;;;;0.00;0.00;;;16.90;68.70;;;;;;5029274;28;20056;-67
2022/07/15 07:16:27;;;;;;;0.00;0.00;;;16.80;67.30;;;;;;5028978;28;20041;-67
2022/07/15 07:18:52;;;;;;;0.00;0.00;;;16.90;68.30;;;;;;5012465;28;20044;-67
2022/07/15 07:21:19;;;;;;;0.00;0.00;;;16.90;68.30;;;;;;5029357;28;20075;-68
2022/07/15 07:23:45;;;;;;;0.00;0.00;;;16.90;67.20;;;;;;5029538;28;20140;-67
2022/07/15 07:26:12;;;;;;;0.00;0.00;;;17.10;66.90;;;;;;5028889;28;20521;-67
2022/07/15 07:28:40;;;;;;;0.00;0.00;;;17.10;66.90;;;;;;5029287;28;20067;-67
2022/07/15 07:31:11;;;;;;;0.00;0.00;;;17.20;67.00;;;;;;5028892;28;20051;-67
2022/07/15 07:33:38;;;;;;;0.00;0.00;;;17.20;66.90;;;;;;5000715;28;20124;-67
2022/07/15 07:36:04;;;;;;;0.00;0.00;;;17.10;66.20;;;;;;5010401;28;20574;-67
2022/07/15 07:38:31;;;;;;;0.00;0.00;;;17.00;66.10;;;;;;5026974;28;20053;-67
2022/07/15 07:40:57;;;;;;;0.00;0.00;;;16.90;66.70;;;;;;5029458;28;20080;-67
2022/07/15 07:43:23;;;;;;;0.00;0.00;;;16.90;67.20;;;;;;5029117;28;20049;-67
2022/07/15 07:45:49;;;;;;;0.00;0.00;;;17.00;66.60;;;;;;5028423;28;20048;-67
2022/07/15 07:48:16;;;;;;;0.00;0.00;;;17.20;66.70;;;;;;4993160;28;20044;-67
2022/07/15 07:50:43;;;;;;;0.00;0.00;;;17.30;64.80;;;;;;5026029;28;20053;-66
2022/07/15 07:53:09;;;;;;;0.00;0.00;;;17.40;65.40;;;;;;4997955;28;20053;-66
2022/07/15 07:55:35;;;;;;;0.00;0.00;;;17.50;64.00;;;;;;5022099;28;20037;-66
2022/07/15 07:58:02;;;;;;;0.00;0.00;;;17.50;63.80;;;;;;5026299;28;20046;-67
2022/07/15 08:00:29;;;;;;;0.00;0.00;;;17.60;65.30;;;;;;5025230;28;20092;-68
2022/07/15 08:02:56;;;;;;;0.00;0.00;;;17.70;65.20;;;;;;5027345;28;20052;-67
2022/07/15 08:05:22;;;;;;;0.00;0.00;;;17.70;64.70;;;;;;5024462;28;20479;-66
2022/07/15 08:07:47;;;;;;;0.00;0.00;;;17.80;65.70;;;;;;5020336;28;20056;-66
2022/07/15 08:10:14;;;;;;;1.00;0.77;;;17.70;65.40;;;;;;5018170;28;20041;-66
2022/07/15 08:12:40;;;;;;;0.00;0.00;;;17.60;63.30;;;;;;5010334;28;20065;-66
2022/07/15 08:15:10;;;;;;;3.10;1.35;;;17.60;63.10;;;;;;5021717;28;20733;-67
2022/07/15 08:17:37;;;;;;;0.00;0.00;;;17.70;63.10;;;;;;5023717;28;20049;-66
2022/07/15 08:20:08;;;;;;;0.00;0.00;;;17.80;64.30;;;;;;5008767;28;20050;-66
2022/07/15 08:22:35;;;;;;;0.00;0.00;;;17.70;62.40;;;;;;5026362;28;20132;-66
2022/07/15 08:25:00;;;;;;;0.00;0.00;;;17.70;63.10;;;;;;5028663;28;20152;-66
2022/07/15 08:27:26;;;;;;;0.00;0.00;;;17.60;63.30;;;;;;5026656;28;20112;-66
2022/07/15 08:29:52;;;;;;;0.00;0.00;;;17.60;64.20;;;;;;5027807;28;20089;-67
2022/07/15 08:32:17;;;;;;;0.00;0.00;;;17.70;65.00;;;;;;5027742;28;20050;-66
2022/07/15 08:34:43;;;;;;;0.00;0.00;;;17.70;64.30;;;;;;5026471;28;20517;-66
2022/07/15 08:37:09;;;;;;;0.00;0.00;;;17.70;63.60;;;;;;5011552;28;20158;-66
2022/07/15 08:39:36;;;;;;;0.00;0.00;;;17.60;63.00;;;;;;5019101;28;20498;-66
2022/07/15 08:42:03;;;;;;;0.00;0.00;;;17.70;63.80;;;;;;5006101;28;20130;-66
2022/07/15 08:44:30;;;;;;;0.00;0.00;;;17.80;64.80;;;;;;5025142;28;20053;-67
2022/07/15 08:47:01;;;;;;;0.00;0.00;;;17.90;63.50;;;;;;5029138;28;20060;-66
2022/07/15 08:49:29;;;;;;;0.70;0.70;;;18.10;64.00;;;;;;5025969;28;20847;-66
2022/07/15 08:51:57;;;;;;;0.00;0.00;;;18.10;61.40;;;;;;5018983;28;20533;-67
2022/07/15 08:54:23;;;;;;;0.00;0.00;;;18.10;61.80;;;;;;5018782;28;20038;-66
2022/07/15 08:56:49;;;;;;;0.10;0.10;;;18.10;61.20;;;;;;5026810;28;20495;-66
2022/07/15 08:59:15;;;;;;;0.10;0.10;;;18.10;61.10;;;;;;5012434;28;20135;-66
2022/07/15 09:01:43;;;;;;;0.00;0.00;;;18.10;61.30;;;;;;5026228;28;20041;-66
2022/07/15 09:04:09;;;;;;;0.00;0.00;;;18.10;60.30;;;;;;5007667;28;20041;-66
2022/07/15 09:06:39;;;;;;;0.00;0.00;;;18.00;60.80;;;;;;5010570;28;20045;-66
2022/07/15 09:09:26;;;;;;;0.00;0.00;;;17.90;61.80;;;;;;5026764;28;20049;-66
2022/07/15 09:12:03;;;;;;;0.00;0.00;;;18.00;62.80;;;;;;5015918;28;20164;-66
2022/07/15 09:14:30;;;;;;;0.00;0.00;;;18.00;62.40;;;;;;5026867;28;20049;-66
2022/07/15 09:17:11;;;;;;;0.00;0.00;;;17.90;62.50;;;;;;5010246;28;20391;-65
2022/07/15 09:19:58;;;;;;;0.00;0.00;;;17.90;62.40;;;;;;5009065;28;20149;-66
2022/07/15 09:22:26;;;;;;;0.00;0.00;;;17.90;62.30;;;;;;5018656;28;20061;-66
2022/07/15 09:25:00;;;;;;;0.00;0.00;;;18.00;60.80;;;;;;5028486;28;20054;-67
2022/07/15 09:27:41;;;;;;;0.00;0.00;;;18.10;61.30;;;;;;5026220;28;20045;-66
2022/07/15 09:36:08;;;;;;;0.00;0.00;;;18.50;60.20;;;;;;5028592;28;20050;-67
2022/07/15 09:38:55;;;;;;;0.00;0.00;;;18.50;60.20;;;;;;5031092;28;20140;-66
2022/07/15 09:41:34;;;;;;;0.00;0.00;;;18.30;60.10;;;;;;5030468;28;20048;-66
2022/07/15 09:44:09;;;;;;;0.00;0.00;;;18.40;60.70;;;;;;5031201;28;20120;-65
2022/07/15 09:46:47;;;;;;;0.00;0.00;;;18.50;61.30;;;;;;5029768;28;20091;-66
2022/07/15 09:49:23;;;;;;;0.00;0.00;;;18.70;60.80;;;;;;5019273;28;20049;-66
2022/07/15 09:51:50;;;;;;;0.00;0.00;;;18.80;60.80;;;;;;5021099;28;20511;-66
2022/07/15 09:54:16;;;;;;;0.00;0.00;;;18.80;60.10;;;;;;5011222;28;20058;-66
2022/07/15 09:56:44;;;;;;;0.00;0.00;;;18.80;60.20;;;;;;5022482;28;20080;-66
2022/07/15 09:59:09;;;;;;;0.00;0.00;;;18.80;59.20;;;;;;4996642;28;20042;-66
2022/07/15 10:01:36;;;;;;;0.00;0.00;;;18.90;58.40;;;;;;5008397;28;20103;-67
2022/07/15 10:04:02;;;;;;;0.00;0.00;;;19.00;58.30;;;;;;5024298;28;20414;-66
2022/07/15 10:06:28;;;;;;;0.00;0.00;;;19.00;58.30;;;;;;5030442;28;20041;-67
2022/07/15 10:08:54;;;;;;;0.00;0.00;;;19.10;56.90;;;;;;5030583;28;20041;-66
2022/07/15 10:11:21;;;;;;;0.00;0.00;;;19.10;58.40;;;;;;5016999;28;20037;-67
2022/07/15 10:14:11;;;;;;;0.00;0.00;;;19.10;58.90;;;;;;5023926;28;20487;-66
2022/07/15 10:16:47;;;;;;;0.00;0.00;;;19.00;60.30;;;;;;5030664;28;20061;-66
2022/07/15 10:19:26;;;;;;;0.00;0.00;;;19.00;59.90;;;;;;5014427;28;20056;-67
2022/07/15 10:21:58;;;;;;;0.00;0.00;;;19.00;60.40;;;;;;5006613;28;20068;-68
2022/07/15 10:24:43;;;;;;;;;;;19.10;59.60;;;;;;5008230;28;20107;-67
2022/07/15 10:27:34;;;;;;;0.00;0.00;;;19.20;57.90;;;;;;5028562;28;19971;-67
2022/07/15 10:30:04;;;;;;;0.00;0.00;;;19.30;57.90;;;;;;5003058;28;20482;-66
2022/07/15 10:33:05;;;;;;;0.10;0.10;;;19.30;57.90;;;;;;5021532;28;20045;-66
2022/07/15 10:35:38;;;;;;;0.00;0.00;;;19.30;57.60;;;;;;5029683;28;20046;-67
2022/07/15 10:38:31;;;;;;;0.00;0.00;;;19.20;57.90;;;;;;5030060;28;20414;-67
2022/07/15 10:41:08;;;;;;;1.55;1.45;;;19.10;59.80;;;;;;5020935;28;20156;-68
2022/07/15 10:43:44;;;;;;;0.00;0.00;;;19.10;58.60;;;;;;5025858;28;20051;-69
2022/07/15 10:46:15;;;;;;;0.00;0.00;;;19.00;58.10;;;;;;5028201;28;20080;-68
2022/07/15 10:48:45;;;;;;;0.10;0.10;;;19.10;59.80;;;;;;5010557;28;20057;-69
2022/07/15 10:51:11;;;;;;;0.00;0.00;;;19.00;59.70;;;;;;5009891;28;20132;-69
2022/07/15 10:53:59;;;;;;;0.05;0.05;;;18.90;60.10;;;;;;5027473;28;20561;-68
2022/07/15 10:56:34;;;;;;;0.00;0.00;;;18.80;61.30;;;;;;5023262;28;20053;-68
2022/07/15 10:59:09;;;;;;;0.00;0.00;;;18.80;61.20;;;;;;5025645;28;20145;-68
2022/07/15 11:01:36;;;;;;;0.00;0.00;;;18.70;61.50;;;;;;5026608;28;20049;-68
2022/07/15 11:04:17;;;;;;;0.00;0.00;;;18.70;62.00;;;;;;5025450;28;20037;-68
2022/07/15 11:07:01;;;;;;;0.00;0.00;;;18.60;62.50;;;;;;5027273;28;20049;-68
2022/07/15 11:09:51;;;;;;;0.00;0.00;;;18.60;62.50;;;;;;5020875;28;20061;-68
2022/07/15 11:12:22;;;;;;;0.00;0.00;;;18.60;61.40;;;;;;5027406;28;20124;-68
2022/07/15 11:14:56;;;;;;;0.00;0.00;;;18.70;62.30;;;;;;5024905;28;20045;-68
2022/07/15 11:17:27;;;;;;;0.00;0.00;;;18.70;62.00;;;;;;5024851;28;20586;-69
2022/07/15 11:20:00;;;;;;;0.00;0.00;;;18.90;61.60;;;;;;5029801;28;20530;-69
2022/07/15 11:22:27;;;;;;;0.00;0.00;;;18.80;60.40;;;;;;5011039;28;20474;-68
2022/07/15 11:24:54;;;;;;;0.00;0.00;;;18.80;61.80;;;;;;5029608;28;20433;-68
2022/07/15 11:27:22;;;;;;;0.47;0.47;;;18.80;62.00;;;;;;5005096;28;20130;-68
2022/07/15 11:29:54;;;;;;;0.00;0.00;;;18.80;60.50;;;;;;5024066;28;20095;-68
2022/07/15 11:32:23;;;;;;;0.00;0.00;;;18.80;60.40;;;;;;5027905;28;20048;-68
2022/07/15 11:34:52;;;;;;;0.20;0.20;;;18.80;62.00;;;;;;5028636;28;20045;-69
2022/07/15 11:37:22;;;;;;;0.00;0.00;;;18.80;63.20;;;;;;5023915;28;20099;-68
2022/07/15 11:40:03;;;;;;;0.00;0.00;;;18.80;61.70;;;;;;5018512;28;20041;-68
2022/07/15 11:45:30;;;;;;;0.00;0.00;;;18.80;60.40;;;;;;5028213;28;20052;-71
2022/07/15 11:47:55;;;;;;;0.00;0.00;;;18.80;60.90;;;;;;5006057;28;20045;-67
2022/07/15 11:50:21;;;;;;;0.00;0.00;;;19.00;62.10;;;;;;5023221;28;20070;-69
2022/07/15 11:52:48;;;;;;;0.00;0.00;;;18.90;62.60;;;;;;5010835;28;20061;-68
2022/07/15 11:55:13;;;;;;;0.00;0.00;;;18.90;62.10;;;;;;5028910;28;20049;-69
2022/07/15 11:57:51;;;;;;;0.00;0.00;;;18.90;60.60;;;;;;5010405;28;20037;-69
2022/07/15 12:00:16;;;;;;;0.00;0.00;;;18.80;61.30;;;;;;5029400;28;20052;-68
2022/07/15 12:02:42;;;;;;;0.00;0.00;;;19.00;62.20;;;;;;5008108;28;20045;-69
2022/07/15 12:05:09;;;;;;;0.00;0.00;;;19.10;63.10;;;;;;5029924;28;20049;-68
2022/07/15 12:07:47;;;;;;;0.00;0.00;;;19.20;63.70;;;;;;5029588;28;20044;-69
2022/07/15 12:10:14;;;;;;;0.00;0.00;;;19.20;63.10;;;;;;5029873;28;20041;-69
2022/07/15 12:12:42;;;;;;;0.00;0.00;;;19.10;63.60;;;;;;5029767;28;20045;-69
2022/07/15 12:15:08;;;;;;;0.00;0.00;;;19.00;63.10;;;;;;5028542;28;20053;-69
2022/07/15 12:17:34;;;;;;;0.08;0.08;;;19.00;64.20;;;;;;5023378;28;20045;-68
2022/07/15 12:20:03;;;;;;;0.00;0.00;;;19.00;64.80;;;;;;5029123;28;20049;-68
2022/07/15 12:22:28;;;;;;;0.00;0.00;;;19.00;63.20;;;;;;5029825;28;20081;-68
2022/07/15 12:24:54;;;;;;;0.00;0.00;;;19.00;63.30;;;;;;5026228;28;20084;-69
2022/07/15 12:27:35;;;;;;;0.00;0.00;;;19.00;63.50;;;;;;5028360;28;20053;-69
2022/07/15 12:30:07;;;;;;;0.00;0.00;;;19.10;63.50;;;;;;4994742;28;20120;-68
2022/07/15 12:32:32;;;;;;;0.00;0.00;;;19.10;62.10;;;;;;5027940;28;20045;-67
2022/07/15 12:35:04;;;;;;;0.03;0.03;;;19.10;62.70;;;;;;5028544;28;20060;-68
2022/07/15 12:37:30;;;;;;;0.00;0.00;;;19.00;61.70;;;;;;5028909;28;20625;-68
2022/07/15 12:39:58;;;;;;;0.00;0.00;;;19.00;62.50;;;;;;5012355;28;20049;-68
2022/07/15 12:42:47;;;;;;;0.00;0.00;;;19.20;62.40;;;;;;5028771;28;20118;-68
2022/07/15 12:45:17;;;;;;;0.00;0.00;;;19.40;62.30;;;;;;5028222;28;20179;-67
2022/07/15 12:47:59;;;;;;;0.00;0.00;;;19.60;61.70;;;;;;5028144;28;20053;-68
2022/07/15 12:50:26;;;;;;;0.00;0.00;;;19.90;60.10;;;;;;5028259;28;20057;-68
2022/07/15 12:52:53;;;;;;;0.00;0.00;;;19.90;59.70;;;;;;5028701;28;20498;-67
2022/07/15 12:55:41;;;;;;;0.00;0.00;;;19.90;59.70;;;;;;5025769;28;20118;-68
2022/07/15 12:58:12;;;;;;;0.00;0.00;;;19.80;61.20;;;;;;5011809;28;20392;-68
2022/07/15 13:00:39;;;;;;;0.00;0.00;;;19.80;60.80;;;;;;5023945;28;20482;-68
2022/07/15 13:03:10;;;;;;;0.00;0.00;;;19.90;61.40;;;;;;5011805;28;20119;-68
2022/07/15 13:05:47;;;;;;;0.00;0.00;;;19.80;60.90;;;;;;5026915;28;20081;-69
2022/07/15 13:08:26;;;;;;;0.10;0.10;;;19.90;60.60;;;;;;5025860;28;20510;-68